sensor_id;sensor_type;location;lat;lon;timestamp;P1;durP1;ratioP1;P2;durP2;ratioP2
32535;SDS011;18974;50.838;4.636;2023-09-30T00:01:56;10.85;;;6.15;;
32535;SDS011;18974;50.838;4.636;2023-09-30T00:04:23;14.55;;;6.70;;
32535;SDS011;18974;50.838;4.636;2023-09-30T00:06:49;10.48;;;7.18;;
32535;SDS011;18974;50.838;4.636;2023-09-30T00:09:15;14.65;;;7.25;;
32535;SDS011;18974;50.838;4.636;2023-09-30T00:11:40;11.18;;;7.57;;
32535;SDS011;18974;50.838;4.636;2023-09-30T00:14:06;13.25;;;7.88;;
32535;SDS011;18974;50.838;4.636;2023-09-30T00:16:32;17.85;;;8.02;;
32535;SDS011;18974;50.838;4.636;2023-09-30T00:18:58;17.45;;;7.95;;
32535;SDS011;18974;50.838;4.636;2023-09-30T00:21:24;12.85;;;8.38;;
32535;SDS011;18974;50.838;4.636;2023-09-30T00:23:50;13.95;;;7.88;;
32535;SDS011;18974;50.838;4.636;2023-09-30T00:26:15;17.50;;;8.55;;
32535;SDS011;18974;50.838;4.636;2023-09-30T00:28:41;11.68;;;7.30;;
32535;SDS011;18974;50.838;4.636;2023-09-30T00:31:07;14.10;;;8.32;;
32535;SDS011;18974;50.838;4.636;2023-09-30T00:33:35;17.05;;;7.90;;
32535;SDS011;18974;50.838;4.636;2023-09-30T00:36:05;14.30;;;8.73;;
32535;SDS011;18974;50.838;4.636;2023-09-30T00:38:32;14.52;;;8.18;;
32535;SDS011;18974;50.838;4.636;2023-09-30T00:40:58;18.65;;;8.48;;
32535;SDS011;18974;50.838;4.636;2023-09-30T00:43:23;13.43;;;7.68;;
32535;SDS011;18974;50.838;4.636;2023-09-30T00:45:51;15.27;;;7.03;;
32535;SDS011;18974;50.838;4.636;2023-09-30T00:48:23;14.25;;;7.43;;
32535;SDS011;18974;50.838;4.636;2023-09-30T00:50:49;12.95;;;7.38;;
32535;SDS011;18974;50.838;4.636;2023-09-30T00:53:14;10.00;;;7.03;;
32535;SDS011;18974;50.838;4.636;2023-09-30T00:55:40;14.30;;;7.10;;
32535;SDS011;18974;50.838;4.636;2023-09-30T00:58:06;10.80;;;6.85;;
32535;SDS011;18974;50.838;4.636;2023-09-30T01:00:32;16.23;;;7.22;;
32535;SDS011;18974;50.838;4.636;2023-09-30T01:02:58;12.38;;;6.97;;
32535;SDS011;18974;50.838;4.636;2023-09-30T01:05:28;15.63;;;7.97;;
32535;SDS011;18974;50.838;4.636;2023-09-30T01:07:55;13.35;;;7.18;;
32535;SDS011;18974;50.838;4.636;2023-09-30T01:10:21;12.45;;;7.30;;
32535;SDS011;18974;50.838;4.636;2023-09-30T01:12:46;13.15;;;7.10;;
32535;SDS011;18974;50.838;4.636;2023-09-30T01:15:12;13.15;;;7.30;;
32535;SDS011;18974;50.838;4.636;2023-09-30T01:17:38;15.13;;;7.45;;
32535;SDS011;18974;50.838;4.636;2023-09-30T01:20:04;14.43;;;7.90;;
32535;SDS011;18974;50.838;4.636;2023-09-30T01:22:32;12.75;;;7.60;;
32535;SDS011;18974;50.838;4.636;2023-09-30T01:24:58;17.48;;;7.60;;
32535;SDS011;18974;50.838;4.636;2023-09-30T01:27:23;14.05;;;7.47;;
32535;SDS011;18974;50.838;4.636;2023-09-30T01:29:50;12.52;;;7.25;;
32535;SDS011;18974;50.838;4.636;2023-09-30T01:32:16;11.77;;;7.32;;
32535;SDS011;18974;50.838;4.636;2023-09-30T01:34:42;15.82;;;7.57;;
32535;SDS011;18974;50.838;4.636;2023-09-30T01:37:08;11.38;;;7.65;;
32535;SDS011;18974;50.838;4.636;2023-09-30T01:39:33;13.30;;;7.18;;
32535;SDS011;18974;50.838;4.636;2023-09-30T01:41:59;17.98;;;7.82;;
32535;SDS011;18974;50.838;4.636;2023-09-30T01:44:25;14.20;;;7.65;;
32535;SDS011;18974;50.838;4.636;2023-09-30T01:46:51;12.50;;;6.95;;
32535;SDS011;18974;50.838;4.636;2023-09-30T01:49:16;14.48;;;7.13;;
32535;SDS011;18974;50.838;4.636;2023-09-30T01:51:45;13.45;;;8.30;;
32535;SDS011;18974;50.838;4.636;2023-09-30T01:54:11;11.35;;;7.32;;
32535;SDS011;18974;50.838;4.636;2023-09-30T01:56:37;16.50;;;7.43;;
32535;SDS011;18974;50.838;4.636;2023-09-30T01:59:02;13.25;;;8.20;;
32535;SDS011;18974;50.838;4.636;2023-09-30T02:01:28;14.43;;;9.13;;
32535;SDS011;18974;50.838;4.636;2023-09-30T02:03:53;15.95;;;8.38;;
32535;SDS011;18974;50.838;4.636;2023-09-30T02:06:19;17.48;;;9.27;;
32535;SDS011;18974;50.838;4.636;2023-09-30T02:08:45;18.48;;;10.00;;
32535;SDS011;18974;50.838;4.636;2023-09-30T02:11:11;13.80;;;9.13;;
32535;SDS011;18974;50.838;4.636;2023-09-30T02:13:38;13.43;;;9.15;;
32535;SDS011;18974;50.838;4.636;2023-09-30T02:16:06;20.38;;;9.68;;
32535;SDS011;18974;50.838;4.636;2023-09-30T02:18:37;23.67;;;9.82;;
32535;SDS011;18974;50.838;4.636;2023-09-30T02:21:02;15.45;;;9.00;;
32535;SDS011;18974;50.838;4.636;2023-09-30T02:23:29;15.90;;;8.90;;
32535;SDS011;18974;50.838;4.636;2023-09-30T02:25:55;20.33;;;10.07;;
32535;SDS011;18974;50.838;4.636;2023-09-30T02:28:20;17.05;;;10.18;;
32535;SDS011;18974;50.838;4.636;2023-09-30T02:30:46;17.55;;;10.65;;
32535;SDS011;18974;50.838;4.636;2023-09-30T02:33:11;20.67;;;10.82;;
32535;SDS011;18974;50.838;4.636;2023-09-30T02:35:37;15.40;;;9.60;;
32535;SDS011;18974;50.838;4.636;2023-09-30T02:38:04;20.80;;;10.20;;
32535;SDS011;18974;50.838;4.636;2023-09-30T02:40:30;20.02;;;9.77;;
32535;SDS011;18974;50.838;4.636;2023-09-30T02:42:55;18.27;;;9.45;;
32535;SDS011;18974;50.838;4.636;2023-09-30T02:45:21;18.10;;;9.32;;
32535;SDS011;18974;50.838;4.636;2023-09-30T02:47:47;18.67;;;9.00;;
32535;SDS011;18974;50.838;4.636;2023-09-30T02:50:12;15.60;;;9.00;;
32535;SDS011;18974;50.838;4.636;2023-09-30T02:52:41;18.40;;;9.38;;
32535;SDS011;18974;50.838;4.636;2023-09-30T02:55:07;17.13;;;9.25;;
32535;SDS011;18974;50.838;4.636;2023-09-30T02:57:34;16.92;;;10.38;;
32535;SDS011;18974;50.838;4.636;2023-09-30T03:00:01;22.13;;;10.70;;
32535;SDS011;18974;50.838;4.636;2023-09-30T03:02:37;18.45;;;10.18;;
32535;SDS011;18974;50.838;4.636;2023-09-30T03:05:03;23.48;;;10.18;;
32535;SDS011;18974;50.838;4.636;2023-09-30T03:07:29;21.80;;;10.60;;
32535;SDS011;18974;50.838;4.636;2023-09-30T03:09:55;18.00;;;11.38;;
32535;SDS011;18974;50.838;4.636;2023-09-30T03:12:20;23.80;;;10.85;;
32535;SDS011;18974;50.838;4.636;2023-09-30T03:14:46;21.92;;;11.20;;
32535;SDS011;18974;50.838;4.636;2023-09-30T03:17:12;25.20;;;10.80;;
32535;SDS011;18974;50.838;4.636;2023-09-30T03:19:38;21.10;;;10.65;;
32535;SDS011;18974;50.838;4.636;2023-09-30T03:22:04;19.38;;;11.05;;
32535;SDS011;18974;50.838;4.636;2023-09-30T03:24:35;22.35;;;12.45;;
32535;SDS011;18974;50.838;4.636;2023-09-30T03:27:02;24.25;;;12.50;;
32535;SDS011;18974;50.838;4.636;2023-09-30T03:29:28;24.52;;;11.95;;
32535;SDS011;18974;50.838;4.636;2023-09-30T03:31:53;30.00;;;13.25;;
32535;SDS011;18974;50.838;4.636;2023-09-30T03:34:19;20.30;;;11.65;;
32535;SDS011;18974;50.838;4.636;2023-09-30T03:36:45;29.17;;;12.65;;
32535;SDS011;18974;50.838;4.636;2023-09-30T03:39:11;26.85;;;13.15;;
32535;SDS011;18974;50.838;4.636;2023-09-30T03:41:40;23.00;;;12.40;;
32535;SDS011;18974;50.838;4.636;2023-09-30T03:44:05;20.33;;;11.63;;
32535;SDS011;18974;50.838;4.636;2023-09-30T03:46:31;17.83;;;12.13;;
32535;SDS011;18974;50.838;4.636;2023-09-30T03:48:57;24.50;;;13.00;;
32535;SDS011;18974;50.838;4.636;2023-09-30T03:51:24;26.13;;;12.63;;
32535;SDS011;18974;50.838;4.636;2023-09-30T03:53:50;28.90;;;12.98;;
32535;SDS011;18974;50.838;4.636;2023-09-30T03:56:16;35.05;;;13.93;;
32535;SDS011;18974;50.838;4.636;2023-09-30T03:58:43;61.80;;;15.20;;
32535;SDS011;18974;50.838;4.636;2023-09-30T04:01:10;86.70;;;15.85;;
32535;SDS011;18974;50.838;4.636;2023-09-30T04:03:39;38.97;;;15.35;;
32535;SDS011;18974;50.838;4.636;2023-09-30T04:06:05;56.22;;;16.60;;
32535;SDS011;18974;50.838;4.636;2023-09-30T04:08:32;98.15;;;15.98;;
32535;SDS011;18974;50.838;4.636;2023-09-30T04:11:01;246.30;;;19.40;;
32535;SDS011;18974;50.838;4.636;2023-09-30T04:13:30;175.98;;;16.15;;
32535;SDS011;18974;50.838;4.636;2023-09-30T04:15:56;295.88;;;22.45;;
32535;SDS011;18974;50.838;4.636;2023-09-30T04:18:25;117.90;;;17.08;;
32535;SDS011;18974;50.838;4.636;2023-09-30T04:20:53;151.85;;;16.83;;
32535;SDS011;18974;50.838;4.636;2023-09-30T04:23:19;69.55;;;15.48;;
32535;SDS011;18974;50.838;4.636;2023-09-30T04:25:47;140.52;;;17.38;;
32535;SDS011;18974;50.838;4.636;2023-09-30T04:28:14;104.93;;;14.88;;
32535;SDS011;18974;50.838;4.636;2023-09-30T04:30:41;119.28;;;15.70;;
32535;SDS011;18974;50.838;4.636;2023-09-30T04:33:07;123.43;;;15.18;;
32535;SDS011;18974;50.838;4.636;2023-09-30T04:35:33;48.85;;;14.00;;
32535;SDS011;18974;50.838;4.636;2023-09-30T04:38:00;51.13;;;14.27;;
32535;SDS011;18974;50.838;4.636;2023-09-30T04:40:26;190.43;;;18.27;;
32535;SDS011;18974;50.838;4.636;2023-09-30T04:42:52;206.77;;;17.77;;
32535;SDS011;18974;50.838;4.636;2023-09-30T04:45:20;165.45;;;16.45;;
32535;SDS011;18974;50.838;4.636;2023-09-30T04:47:46;127.43;;;15.32;;
32535;SDS011;18974;50.838;4.636;2023-09-30T04:50:14;82.38;;;15.10;;
32535;SDS011;18974;50.838;4.636;2023-09-30T04:52:41;108.85;;;16.00;;
32535;SDS011;18974;50.838;4.636;2023-09-30T04:55:07;61.20;;;14.85;;
32535;SDS011;18974;50.838;4.636;2023-09-30T04:57:34;135.90;;;17.05;;
32535;SDS011;18974;50.838;4.636;2023-09-30T04:59:59;53.03;;;15.60;;
32535;SDS011;18974;50.838;4.636;2023-09-30T05:02:26;32.25;;;14.60;;
32535;SDS011;18974;50.838;4.636;2023-09-30T05:04:52;75.72;;;16.05;;
32535;SDS011;18974;50.838;4.636;2023-09-30T05:07:21;47.15;;;13.80;;
32535;SDS011;18974;50.838;4.636;2023-09-30T05:09:47;34.38;;;13.73;;
32535;SDS011;18974;50.838;4.636;2023-09-30T05:12:13;62.75;;;14.23;;
32535;SDS011;18974;50.838;4.636;2023-09-30T05:14:39;223.75;;;18.83;;
32535;SDS011;18974;50.838;4.636;2023-09-30T05:17:05;65.10;;;15.55;;
32535;SDS011;18974;50.838;4.636;2023-09-30T05:19:33;32.45;;;13.48;;
32535;SDS011;18974;50.838;4.636;2023-09-30T05:21:58;104.65;;;16.15;;
32535;SDS011;18974;50.838;4.636;2023-09-30T05:24:26;117.00;;;17.00;;
32535;SDS011;18974;50.838;4.636;2023-09-30T05:26:55;33.85;;;15.23;;
32535;SDS011;18974;50.838;4.636;2023-09-30T05:29:20;51.45;;;15.60;;
32535;SDS011;18974;50.838;4.636;2023-09-30T05:31:47;27.50;;;14.75;;
32535;SDS011;18974;50.838;4.636;2023-09-30T05:34:13;33.38;;;13.75;;
32535;SDS011;18974;50.838;4.636;2023-09-30T05:36:38;73.85;;;15.68;;
32535;SDS011;18974;50.838;4.636;2023-09-30T05:39:04;41.40;;;14.95;;
32535;SDS011;18974;50.838;4.636;2023-09-30T05:41:33;120.50;;;17.40;;
32535;SDS011;18974;50.838;4.636;2023-09-30T05:43:59;49.33;;;15.70;;
32535;SDS011;18974;50.838;4.636;2023-09-30T05:46:25;46.13;;;15.23;;
32535;SDS011;18974;50.838;4.636;2023-09-30T05:48:52;29.63;;;15.07;;
32535;SDS011;18974;50.838;4.636;2023-09-30T05:51:18;29.85;;;15.52;;
32535;SDS011;18974;50.838;4.636;2023-09-30T05:53:43;48.45;;;16.00;;
32535;SDS011;18974;50.838;4.636;2023-09-30T05:56:10;31.63;;;15.02;;
32535;SDS011;18974;50.838;4.636;2023-09-30T05:58:36;31.52;;;15.57;;
32535;SDS011;18974;50.838;4.636;2023-09-30T06:01:07;73.40;;;16.83;;
32535;SDS011;18974;50.838;4.636;2023-09-30T06:03:36;38.80;;;16.27;;
32535;SDS011;18974;50.838;4.636;2023-09-30T06:06:10;30.60;;;15.38;;
32535;SDS011;18974;50.838;4.636;2023-09-30T06:08:37;28.95;;;15.52;;
32535;SDS011;18974;50.838;4.636;2023-09-30T06:11:03;24.80;;;15.95;;
32535;SDS011;18974;50.838;4.636;2023-09-30T06:13:29;25.67;;;13.65;;
32535;SDS011;18974;50.838;4.636;2023-09-30T06:15:56;25.63;;;15.30;;
32535;SDS011;18974;50.838;4.636;2023-09-30T06:18:23;33.45;;;17.15;;
32535;SDS011;18974;50.838;4.636;2023-09-30T06:20:49;42.15;;;17.73;;
32535;SDS011;18974;50.838;4.636;2023-09-30T06:23:15;122.43;;;19.30;;
32535;SDS011;18974;50.838;4.636;2023-09-30T06:25:42;63.22;;;17.80;;
32535;SDS011;18974;50.838;4.636;2023-09-30T06:28:08;47.38;;;16.25;;
32535;SDS011;18974;50.838;4.636;2023-09-30T06:30:34;49.63;;;17.38;;
32535;SDS011;18974;50.838;4.636;2023-09-30T06:33:00;54.28;;;17.20;;
32535;SDS011;18974;50.838;4.636;2023-09-30T06:35:29;43.50;;;16.33;;
32535;SDS011;18974;50.838;4.636;2023-09-30T06:37:58;56.03;;;17.38;;
32535;SDS011;18974;50.838;4.636;2023-09-30T06:40:24;49.15;;;17.45;;
32535;SDS011;18974;50.838;4.636;2023-09-30T06:42:50;35.63;;;17.13;;
32535;SDS011;18974;50.838;4.636;2023-09-30T06:45:17;35.83;;;17.02;;
32535;SDS011;18974;50.838;4.636;2023-09-30T06:47:42;31.15;;;17.20;;
32535;SDS011;18974;50.838;4.636;2023-09-30T06:50:11;35.78;;;16.98;;
32535;SDS011;18974;50.838;4.636;2023-09-30T06:52:41;59.63;;;18.13;;
32535;SDS011;18974;50.838;4.636;2023-09-30T06:55:10;36.08;;;17.45;;
32535;SDS011;18974;50.838;4.636;2023-09-30T06:57:39;36.35;;;17.42;;
32535;SDS011;18974;50.838;4.636;2023-09-30T07:00:09;36.58;;;18.27;;
32535;SDS011;18974;50.838;4.636;2023-09-30T07:02:37;33.92;;;17.05;;
32535;SDS011;18974;50.838;4.636;2023-09-30T07:05:13;38.63;;;17.27;;
32535;SDS011;18974;50.838;4.636;2023-09-30T07:07:39;34.10;;;17.55;;
32535;SDS011;18974;50.838;4.636;2023-09-30T07:10:06;35.20;;;17.50;;
32535;SDS011;18974;50.838;4.636;2023-09-30T07:12:32;33.65;;;16.95;;
32535;SDS011;18974;50.838;4.636;2023-09-30T07:15:04;34.90;;;17.48;;
32535;SDS011;18974;50.838;4.636;2023-09-30T07:17:30;32.08;;;17.48;;
32535;SDS011;18974;50.838;4.636;2023-09-30T07:19:57;33.35;;;15.73;;
32535;SDS011;18974;50.838;4.636;2023-09-30T07:22:22;31.00;;;15.80;;
32535;SDS011;18974;50.838;4.636;2023-09-30T07:24:48;27.25;;;14.90;;
32535;SDS011;18974;50.838;4.636;2023-09-30T07:27:14;36.40;;;15.27;;
32535;SDS011;18974;50.838;4.636;2023-09-30T07:29:39;30.05;;;14.63;;
32535;SDS011;18974;50.838;4.636;2023-09-30T07:32:06;26.00;;;14.50;;
32535;SDS011;18974;50.838;4.636;2023-09-30T07:34:36;30.95;;;14.50;;
32535;SDS011;18974;50.838;4.636;2023-09-30T07:37:01;26.30;;;14.40;;
32535;SDS011;18974;50.838;4.636;2023-09-30T07:39:28;25.77;;;14.05;;
32535;SDS011;18974;50.838;4.636;2023-09-30T07:41:55;28.27;;;13.77;;
32535;SDS011;18974;50.838;4.636;2023-09-30T07:44:21;28.23;;;13.80;;
32535;SDS011;18974;50.838;4.636;2023-09-30T07:46:47;28.35;;;13.93;;
32535;SDS011;18974;50.838;4.636;2023-09-30T07:49:12;30.98;;;13.68;;
32535;SDS011;18974;50.838;4.636;2023-09-30T07:51:38;25.77;;;12.25;;
32535;SDS011;18974;50.838;4.636;2023-09-30T07:54:05;27.85;;;13.75;;
32535;SDS011;18974;50.838;4.636;2023-09-30T07:56:30;29.40;;;13.20;;
32535;SDS011;18974;50.838;4.636;2023-09-30T07:58:56;27.73;;;13.48;;
32535;SDS011;18974;50.838;4.636;2023-09-30T08:01:22;30.08;;;12.63;;
32535;SDS011;18974;50.838;4.636;2023-09-30T08:03:47;26.73;;;13.57;;
32535;SDS011;18974;50.838;4.636;2023-09-30T08:06:14;29.00;;;12.48;;
32535;SDS011;18974;50.838;4.636;2023-09-30T08:08:39;27.08;;;13.88;;
32535;SDS011;18974;50.838;4.636;2023-09-30T08:11:05;29.23;;;13.68;;
32535;SDS011;18974;50.838;4.636;2023-09-30T08:13:32;29.98;;;13.40;;
32535;SDS011;18974;50.838;4.636;2023-09-30T08:16:01;26.92;;;13.13;;
32535;SDS011;18974;50.838;4.636;2023-09-30T08:18:27;33.67;;;13.65;;
32535;SDS011;18974;50.838;4.636;2023-09-30T08:20:52;34.30;;;13.60;;
32535;SDS011;18974;50.838;4.636;2023-09-30T08:23:18;31.30;;;14.18;;
32535;SDS011;18974;50.838;4.636;2023-09-30T08:25:44;31.98;;;14.80;;
32535;SDS011;18974;50.838;4.636;2023-09-30T08:28:10;30.63;;;12.45;;
32535;SDS011;18974;50.838;4.636;2023-09-30T08:30:37;26.52;;;13.07;;
32535;SDS011;18974;50.838;4.636;2023-09-30T08:33:03;32.38;;;12.98;;
32535;SDS011;18974;50.838;4.636;2023-09-30T08:35:29;33.55;;;12.68;;
32535;SDS011;18974;50.838;4.636;2023-09-30T08:37:56;27.23;;;12.18;;
32535;SDS011;18974;50.838;4.636;2023-09-30T08:40:23;24.50;;;12.20;;
32535;SDS011;18974;50.838;4.636;2023-09-30T08:42:50;31.95;;;11.85;;
32535;SDS011;18974;50.838;4.636;2023-09-30T08:45:18;28.13;;;11.25;;
32535;SDS011;18974;50.838;4.636;2023-09-30T08:47:44;37.22;;;11.63;;
32535;SDS011;18974;50.838;4.636;2023-09-30T08:50:11;35.83;;;11.00;;
32535;SDS011;18974;50.838;4.636;2023-09-30T08:52:39;26.48;;;10.60;;
32535;SDS011;18974;50.838;4.636;2023-09-30T08:55:07;34.92;;;11.25;;
32535;SDS011;18974;50.838;4.636;2023-09-30T08:57:33;36.45;;;11.60;;
32535;SDS011;18974;50.838;4.636;2023-09-30T09:00:06;29.20;;;9.93;;
32535;SDS011;18974;50.838;4.636;2023-09-30T09:02:36;33.70;;;10.18;;
32535;SDS011;18974;50.838;4.636;2023-09-30T09:05:02;31.67;;;10.00;;
32535;SDS011;18974;50.838;4.636;2023-09-30T09:07:28;28.65;;;9.90;;
32535;SDS011;18974;50.838;4.636;2023-09-30T09:12:40;27.02;;;8.93;;
32535;SDS011;18974;50.838;4.636;2023-09-30T09:15:07;27.10;;;8.88;;
32535;SDS011;18974;50.838;4.636;2023-09-30T09:17:40;28.02;;;8.95;;
32535;SDS011;18974;50.838;4.636;2023-09-30T09:20:16;24.08;;;8.88;;
32535;SDS011;18974;50.838;4.636;2023-09-30T09:22:46;30.02;;;9.32;;
32535;SDS011;18974;50.838;4.636;2023-09-30T09:25:15;28.92;;;8.77;;
32535;SDS011;18974;50.838;4.636;2023-09-30T09:27:41;19.50;;;7.85;;
32535;SDS011;18974;50.838;4.636;2023-09-30T09:30:20;22.73;;;8.45;;
32535;SDS011;18974;50.838;4.636;2023-09-30T09:32:54;24.42;;;8.35;;
32535;SDS011;18974;50.838;4.636;2023-09-30T09:35:23;21.35;;;8.38;;
32535;SDS011;18974;50.838;4.636;2023-09-30T09:37:54;22.52;;;7.78;;
32535;SDS011;18974;50.838;4.636;2023-09-30T09:40:25;30.05;;;8.48;;
32535;SDS011;18974;50.838;4.636;2023-09-30T09:42:53;20.90;;;7.57;;
32535;SDS011;18974;50.838;4.636;2023-09-30T09:45:24;15.73;;;7.10;;
32535;SDS011;18974;50.838;4.636;2023-09-30T09:47:51;17.95;;;6.60;;
32535;SDS011;18974;50.838;4.636;2023-09-30T09:50:18;20.75;;;6.57;;
32535;SDS011;18974;50.838;4.636;2023-09-30T09:52:48;20.38;;;6.93;;
32535;SDS011;18974;50.838;4.636;2023-09-30T09:55:23;18.45;;;5.63;;
32535;SDS011;18974;50.838;4.636;2023-09-30T09:57:50;15.70;;;5.47;;
32535;SDS011;18974;50.838;4.636;2023-09-30T10:00:18;23.85;;;6.07;;
32535;SDS011;18974;50.838;4.636;2023-09-30T10:02:45;16.90;;;4.95;;
32535;SDS011;18974;50.838;4.636;2023-09-30T10:05:14;16.38;;;5.10;;
32535;SDS011;18974;50.838;4.636;2023-09-30T10:08:01;15.75;;;4.82;;
32535;SDS011;18974;50.838;4.636;2023-09-30T10:10:36;16.92;;;5.22;;
32535;SDS011;18974;50.838;4.636;2023-09-30T10:13:03;12.68;;;4.70;;
32535;SDS011;18974;50.838;4.636;2023-09-30T10:17:57;22.65;;;5.40;;
32535;SDS011;18974;50.838;4.636;2023-09-30T10:20:39;17.38;;;5.18;;
32535;SDS011;18974;50.838;4.636;2023-09-30T10:28:45;12.88;;;4.70;;
32535;SDS011;18974;50.838;4.636;2023-09-30T10:36:34;11.95;;;3.50;;
32535;SDS011;18974;50.838;4.636;2023-09-30T10:39:03;14.25;;;4.38;;
32535;SDS011;18974;50.838;4.636;2023-09-30T10:46:55;13.93;;;4.32;;
32535;SDS011;18974;50.838;4.636;2023-09-30T10:51:57;13.65;;;4.15;;
32535;SDS011;18974;50.838;4.636;2023-09-30T10:54:28;10.98;;;3.70;;
32535;SDS011;18974;50.838;4.636;2023-09-30T10:56:55;9.75;;;3.17;;
32535;SDS011;18974;50.838;4.636;2023-09-30T10:59:31;12.05;;;4.15;;
32535;SDS011;18974;50.838;4.636;2023-09-30T11:01:59;17.05;;;4.18;;
32535;SDS011;18974;50.838;4.636;2023-09-30T11:04:26;14.05;;;3.85;;
32535;SDS011;18974;50.838;4.636;2023-09-30T11:06:54;12.73;;;4.20;;
32535;SDS011;18974;50.838;4.636;2023-09-30T11:09:21;11.90;;;3.60;;
32535;SDS011;18974;50.838;4.636;2023-09-30T11:11:48;13.02;;;3.88;;
32535;SDS011;18974;50.838;4.636;2023-09-30T11:14:28;19.08;;;4.45;;
32535;SDS011;18974;50.838;4.636;2023-09-30T11:16:55;14.15;;;3.60;;
32535;SDS011;18974;50.838;4.636;2023-09-30T11:19:35;14.45;;;4.18;;
32535;SDS011;18974;50.838;4.636;2023-09-30T11:22:10;15.07;;;3.60;;
32535;SDS011;18974;50.838;4.636;2023-09-30T11:24:36;10.43;;;4.15;;
32535;SDS011;18974;50.838;4.636;2023-09-30T11:27:02;10.00;;;3.45;;
32535;SDS011;18974;50.838;4.636;2023-09-30T11:29:29;13.48;;;4.10;;
32535;SDS011;18974;50.838;4.636;2023-09-30T11:31:55;13.30;;;3.53;;
32535;SDS011;18974;50.838;4.636;2023-09-30T11:34:30;12.30;;;3.65;;
32535;SDS011;18974;50.838;4.636;2023-09-30T11:36:58;12.40;;;3.78;;
32535;SDS011;18974;50.838;4.636;2023-09-30T11:39:27;9.30;;;3.30;;
32535;SDS011;18974;50.838;4.636;2023-09-30T11:41:54;12.82;;;3.67;;
32535;SDS011;18974;50.838;4.636;2023-09-30T11:44:22;9.63;;;3.88;;
32535;SDS011;18974;50.838;4.636;2023-09-30T11:49:39;10.38;;;3.65;;
32535;SDS011;18974;50.838;4.636;2023-09-30T11:52:09;12.75;;;3.78;;
32535;SDS011;18974;50.838;4.636;2023-09-30T11:54:37;11.13;;;3.72;;
32535;SDS011;18974;50.838;4.636;2023-09-30T11:57:08;11.63;;;3.80;;
32535;SDS011;18974;50.838;4.636;2023-09-30T11:59:35;8.70;;;3.13;;
32535;SDS011;18974;50.838;4.636;2023-09-30T12:02:02;8.98;;;3.58;;
32535;SDS011;18974;50.838;4.636;2023-09-30T12:04:34;10.60;;;3.35;;
32535;SDS011;18974;50.838;4.636;2023-09-30T12:07:00;8.95;;;3.10;;
32535;SDS011;18974;50.838;4.636;2023-09-30T12:09:25;11.98;;;4.00;;
32535;SDS011;18974;50.838;4.636;2023-09-30T12:11:52;7.68;;;3.05;;
32535;SDS011;18974;50.838;4.636;2023-09-30T12:14:19;10.20;;;3.15;;
32535;SDS011;18974;50.838;4.636;2023-09-30T12:16:47;10.15;;;2.75;;
32535;SDS011;18974;50.838;4.636;2023-09-30T12:19:14;11.55;;;3.45;;
32535;SDS011;18974;50.838;4.636;2023-09-30T12:21:40;9.02;;;3.22;;
32535;SDS011;18974;50.838;4.636;2023-09-30T12:24:07;10.52;;;3.20;;
32535;SDS011;18974;50.838;4.636;2023-09-30T12:26:34;8.60;;;3.28;;
32535;SDS011;18974;50.838;4.636;2023-09-30T12:29:01;9.63;;;3.75;;
32535;SDS011;18974;50.838;4.636;2023-09-30T12:31:28;9.45;;;2.97;;
32535;SDS011;18974;50.838;4.636;2023-09-30T12:33:54;14.57;;;3.80;;
32535;SDS011;18974;50.838;4.636;2023-09-30T12:36:21;9.80;;;3.45;;
32535;SDS011;18974;50.838;4.636;2023-09-30T12:38:47;10.23;;;3.47;;
32535;SDS011;18974;50.838;4.636;2023-09-30T12:41:13;6.97;;;3.33;;
32535;SDS011;18974;50.838;4.636;2023-09-30T12:43:40;8.48;;;3.28;;
32535;SDS011;18974;50.838;4.636;2023-09-30T12:46:07;12.07;;;3.78;;
32535;SDS011;18974;50.838;4.636;2023-09-30T12:48:34;13.80;;;3.30;;
32535;SDS011;18974;50.838;4.636;2023-09-30T12:51:00;10.20;;;3.60;;
32535;SDS011;18974;50.838;4.636;2023-09-30T12:53:26;7.70;;;3.13;;
32535;SDS011;18974;50.838;4.636;2023-09-30T12:55:51;11.13;;;3.40;;
32535;SDS011;18974;50.838;4.636;2023-09-30T12:58:17;10.00;;;3.08;;
32535;SDS011;18974;50.838;4.636;2023-09-30T13:00:42;11.75;;;3.60;;
32535;SDS011;18974;50.838;4.636;2023-09-30T13:03:09;7.72;;;3.10;;
32535;SDS011;18974;50.838;4.636;2023-09-30T13:05:34;12.70;;;3.85;;
32535;SDS011;18974;50.838;4.636;2023-09-30T13:08:00;8.40;;;3.33;;
32535;SDS011;18974;50.838;4.636;2023-09-30T13:10:26;10.90;;;3.22;;
32535;SDS011;18974;50.838;4.636;2023-09-30T13:12:52;7.43;;;3.15;;
32535;SDS011;18974;50.838;4.636;2023-09-30T13:15:19;8.80;;;3.00;;
32535;SDS011;18974;50.838;4.636;2023-09-30T13:17:46;8.70;;;3.58;;
32535;SDS011;18974;50.838;4.636;2023-09-30T13:20:15;9.18;;;3.22;;
32535;SDS011;18974;50.838;4.636;2023-09-30T13:22:40;12.20;;;3.20;;
32535;SDS011;18974;50.838;4.636;2023-09-30T13:25:06;8.38;;;3.20;;
32535;SDS011;18974;50.838;4.636;2023-09-30T13:27:37;10.23;;;3.00;;
32535;SDS011;18974;50.838;4.636;2023-09-30T13:30:05;9.32;;;3.33;;
32535;SDS011;18974;50.838;4.636;2023-09-30T13:32:32;9.13;;;3.20;;
32535;SDS011;18974;50.838;4.636;2023-09-30T13:35:01;8.20;;;3.10;;
32535;SDS011;18974;50.838;4.636;2023-09-30T13:37:31;14.15;;;3.35;;
32535;SDS011;18974;50.838;4.636;2023-09-30T13:40:01;12.82;;;3.78;;
32535;SDS011;18974;50.838;4.636;2023-09-30T13:42:29;8.10;;;3.17;;
32535;SDS011;18974;50.838;4.636;2023-09-30T13:44:57;11.20;;;3.30;;
32535;SDS011;18974;50.838;4.636;2023-09-30T13:47:24;8.18;;;3.03;;
32535;SDS011;18974;50.838;4.636;2023-09-30T13:49:50;12.98;;;3.55;;
32535;SDS011;18974;50.838;4.636;2023-09-30T13:52:16;9.00;;;2.60;;
32535;SDS011;18974;50.838;4.636;2023-09-30T13:54:42;9.80;;;2.72;;
32535;SDS011;18974;50.838;4.636;2023-09-30T13:57:08;11.07;;;3.05;;
32535;SDS011;18974;50.838;4.636;2023-09-30T13:59:36;9.85;;;3.25;;
32535;SDS011;18974;50.838;4.636;2023-09-30T14:02:02;6.72;;;2.88;;
32535;SDS011;18974;50.838;4.636;2023-09-30T14:04:31;11.23;;;3.05;;
32535;SDS011;18974;50.838;4.636;2023-09-30T14:07:00;9.07;;;2.70;;
32535;SDS011;18974;50.838;4.636;2023-09-30T14:09:27;8.57;;;3.35;;
32535;SDS011;18974;50.838;4.636;2023-09-30T14:11:53;9.10;;;3.22;;
32535;SDS011;18974;50.838;4.636;2023-09-30T14:14:19;8.43;;;3.25;;
32535;SDS011;18974;50.838;4.636;2023-09-30T14:16:45;6.57;;;2.70;;
32535;SDS011;18974;50.838;4.636;2023-09-30T14:19:13;10.65;;;2.97;;
32535;SDS011;18974;50.838;4.636;2023-09-30T14:21:42;10.65;;;3.30;;
32535;SDS011;18974;50.838;4.636;2023-09-30T14:24:08;13.88;;;3.20;;
32535;SDS011;18974;50.838;4.636;2023-09-30T14:26:33;8.13;;;3.00;;
32535;SDS011;18974;50.838;4.636;2023-09-30T14:28:59;10.23;;;2.92;;
32535;SDS011;18974;50.838;4.636;2023-09-30T14:31:25;7.97;;;2.80;;
32535;SDS011;18974;50.838;4.636;2023-09-30T14:33:51;7.05;;;2.78;;
32535;SDS011;18974;50.838;4.636;2023-09-30T14:36:18;10.50;;;3.10;;
32535;SDS011;18974;50.838;4.636;2023-09-30T14:38:47;8.82;;;3.03;;
32535;SDS011;18974;50.838;4.636;2023-09-30T14:41:14;7.90;;;2.80;;
32535;SDS011;18974;50.838;4.636;2023-09-30T14:43:40;9.20;;;2.85;;
32535;SDS011;18974;50.838;4.636;2023-09-30T14:46:05;6.78;;;3.17;;
32535;SDS011;18974;50.838;4.636;2023-09-30T14:48:31;7.07;;;3.00;;
32535;SDS011;18974;50.838;4.636;2023-09-30T14:50:57;6.15;;;2.55;;
32535;SDS011;18974;50.838;4.636;2023-09-30T14:53:23;10.98;;;3.50;;
32535;SDS011;18974;50.838;4.636;2023-09-30T14:55:49;12.10;;;3.20;;
32535;SDS011;18974;50.838;4.636;2023-09-30T14:58:15;11.93;;;2.85;;